Time;durP1;ratioP1;P1;durP2;ratioP2;P2;SDS_P1;SDS_P2;PMS_P1;PMS_P2;Temp;Humidity;BMP_temperature;BMP_pressure;BME280_temperature;BME280_humidity;BME280_pressure;Samples;Min_cycle;Max_cycle;Signal;HPM_P1;HPM_P2
2021/05/04 17:17:17;;;;;;;4.72;3.92;;;;;;;;;;5149785;27;20323;-71
2021/05/04 17:19:43;;;;;;;5.60;3.33;;;;;;;;;;5138221;27;20029;-72
2021/05/04 17:22:09;;;;;;;4.25;2.03;;;;;;;;;;5129013;28;20429;-72
2021/05/04 17:24:35;;;;;;;3.50;1.70;;;;;;;;;;5127721;27;20027;-72
2021/05/04 17:27:02;;;;;;;2.22;1.40;;;;;;;;;;5128900;27;20409;-72
2021/05/04 17:29:28;;;;;;;1.77;1.33;;;;;;;;;;5094085;28;20067;-72
2021/05/04 17:31:54;;;;;;;2.70;1.40;;;;;;;;;;5108120;28;20027;-72
2021/05/04 17:34:20;;;;;;;3.58;1.20;;;;;;;;;;5115185;28;20115;-73
2021/05/04 17:36:46;;;;;;;2.83;1.60;;;;;;;;;;5117595;27;20519;-73
2021/05/04 17:39:12;;;;;;;1.27;1.10;;;;;;;;;;5128597;27;20031;-73
2021/05/04 17:41:39;;;;;;;2.70;1.40;;;;;;;;;;5128242;27;20022;-73
2021/05/04 17:44:06;;;;;;;3.92;1.80;;;;;;;;;;5128542;27;20491;-73
2021/05/04 17:46:34;;;;;;;2.88;1.63;;;;;;;;;;5128802;27;20028;-74
2021/05/04 17:49:01;;;;;;;2.25;1.73;;;;;;;;;;5122880;27;20168;-73
2021/05/04 17:51:27;;;;;;;1.92;1.73;;;;;;;;;;5107259;28;20060;-73
2021/05/04 17:53:53;;;;;;;4.15;1.95;;;;;;;;;;5108059;28;20039;-73
2021/05/04 17:56:20;;;;;;;4.53;1.63;;;;;;;;;;5108154;28;20035;-71
2021/05/04 17:58:46;;;;;;;2.40;1.80;;;;;;;;;;5124826;27;20023;-71
2021/05/04 18:01:13;;;;;;;2.38;1.73;;;;;;;;;;5149101;27;20038;-73
2021/05/04 18:03:43;;;;;;;3.58;1.70;;;;;;;;;;5137268;27;20032;-74
2021/05/04 18:06:13;;;;;;;1.77;1.60;;;;;;;;;;5106465;28;20028;-74
2021/05/04 18:08:39;;;;;;;1.90;1.45;;;;;;;;;;5107846;28;20099;-74
2021/05/04 18:11:07;;;;;;;2.22;1.30;;;;;;;;;;5107006;28;20106;-74
2021/05/04 18:14:29;;;;;;;3.17;1.55;;;;;;;;;;5106611;28;20023;-74
2021/05/04 18:21:46;;;;;;;4.35;1.73;;;;;;;;;;5106831;28;20031;-71
2021/05/04 18:24:13;;;;;;;6.10;1.60;;;;;;;;;;5107598;28;20062;-72
2021/05/04 18:26:40;;;;;;;3.20;1.70;;;;;;;;;;5105313;28;20032;-73
2021/05/04 18:29:08;;;;;;;1.88;1.50;;;;;;;;;;5115847;27;20373;-72
2021/05/04 18:31:38;;;;;;;2.90;1.77;;;;;;;;;;5132873;27;20027;-73
2021/05/04 18:34:05;;;;;;;2.22;1.50;;;;;;;;;;5122597;27;20401;-72
2021/05/04 18:36:39;;;;;;;3.28;1.67;;;;;;;;;;5093753;28;20040;-73
2021/05/04 20:12:23;;;;;;;2.80;1.70;;;;;;;;;;5047796;28;20110;-73
2021/05/04 20:14:53;;;;;;;4.80;1.67;;;;;;;;;;5048917;28;20025;-74
2021/05/04 20:17:19;;;;;;;1.90;1.45;;;;;;;;;;5051717;28;20029;-75
2021/05/04 20:19:45;;;;;;;4.43;1.60;;;;;;;;;;5049176;28;20569;-74
2021/05/04 20:22:12;;;;;;;5.68;1.38;;;;;;;;;;5045208;28;20672;-73
2021/05/04 20:24:38;;;;;;;4.25;1.45;;;;;;;;;;5050669;28;20035;-73
2021/05/04 20:27:04;;;;;;;3.47;1.40;;;;;;;;;;5051895;28;20029;-72
2021/05/04 20:29:30;;;;;;;3.72;1.60;;;;;;;;;;5049350;28;20036;-73
2021/05/04 20:31:56;;;;;;;2.25;1.20;;;;;;;;;;5052256;28;20033;-73
2021/05/04 20:34:24;;;;;;;2.35;1.25;;;;;;;;;;5050848;28;20032;-72
2021/05/04 20:36:51;;;;;;;4.35;1.60;;;;;;;;;;5050702;28;20086;-73
2021/05/04 20:39:17;;;;;;;2.30;0.80;;;;;;;;;;5052077;28;20078;-72
2021/05/04 20:41:43;;;;;;;3.78;1.23;;;;;;;;;;5042138;28;20033;-73
2021/05/04 20:44:09;;;;;;;4.03;0.93;;;;;;;;;;5039573;28;20036;-73
2021/05/04 20:46:45;;;;;;;1.77;0.80;;;;;;;;;;5041265;28;20025;-73
2021/05/04 20:49:16;;;;;;;2.80;0.80;;;;;;;;;;5039966;28;20405;-73
2021/05/04 20:51:42;;;;;;;2.63;1.08;;;;;;;;;;5039773;28;20036;-73
2021/05/04 20:54:08;;;;;;;2.95;1.00;;;;;;;;;;5042468;28;20036;-73
2021/05/04 20:56:34;;;;;;;1.02;0.73;;;;;;;;;;5041253;28;20524;-73
2021/05/04 20:59:00;;;;;;;2.45;0.88;;;;;;;;;;5043336;28;20047;-73
2021/05/04 21:01:27;;;;;;;2.72;1.00;;;;;;;;;;5041612;28;20546;-74
2021/05/04 21:03:54;;;;;;;1.98;0.80;;;;;;;;;;5041679;28;20143;-74
2021/05/04 21:06:20;;;;;;;4.38;1.27;;;;;;;;;;5044577;28;20040;-72
2021/05/04 21:08:48;;;;;;;2.17;1.00;;;;;;;;;;5042579;28;20024;-72
2021/05/04 21:13:55;;;;;;;2.03;1.35;;;;;;;;;;5043513;28;20436;-71
2021/05/04 21:16:23;;;;;;;3.38;1.20;;;;;;;;;;5041662;28;20098;-71
2021/05/04 21:18:53;;;;;;;1.65;1.30;;;;;;;;;;5046670;28;20031;-71
2021/05/04 21:21:33;;;;;;;1.98;1.30;;;;;;;;;;5037964;28;20025;-71
2021/05/04 21:28:57;;;;;;;0.73;0.60;;;;;;;;;;5040379;28;20036;-71
2021/05/04 21:31:23;;;;;;;1.10;0.73;;;;;;;;;;5045100;28;20347;-71
2021/05/04 21:33:49;;;;;;;2.38;0.65;;;;;;;;;;5048325;28;20492;-71
2021/05/04 21:36:15;;;;;;;2.28;0.60;;;;;;;;;;5052343;28;20079;-71
2021/05/04 21:38:42;;;;;;;1.17;0.60;;;;;;;;;;5052058;28;20091;-71
2021/05/04 21:41:08;;;;;;;1.48;0.55;;;;;;;;;;5051639;28;20104;-71
2021/05/04 21:43:34;;;;;;;0.75;0.40;;;;;;;;;;5055183;28;20025;-71
2021/05/04 21:46:00;;;;;;;2.30;0.60;;;;;;;;;;5053034;28;20029;-71
2021/05/04 21:48:26;;;;;;;2.20;0.50;;;;;;;;;;5053525;28;20035;-72
2021/05/04 21:50:52;;;;;;;1.50;0.40;;;;;;;;;;5051916;28;20439;-71
2021/05/04 21:53:18;;;;;;;2.05;0.60;;;;;;;;;;5051484;28;20112;-71
2021/05/04 21:55:45;;;;;;;1.05;0.40;;;;;;;;;;5051205;28;20025;-71
2021/05/04 21:58:11;;;;;;;2.55;0.30;;;;;;;;;;5051366;28;20021;-71
2021/05/04 22:00:41;;;;;;;2.03;0.60;;;;;;;;;;5050427;28;20025;-71
2021/05/04 22:03:08;;;;;;;1.83;0.35;;;;;;;;;;5053397;28;20074;-71
2021/05/04 22:05:34;;;;;;;1.58;0.50;;;;;;;;;;5046806;28;20100;-72
2021/05/04 22:08:00;;;;;;;1.67;0.40;;;;;;;;;;5053548;28;20044;-72
2021/05/04 22:10:32;;;;;;;0.95;0.50;;;;;;;;;;5054334;28;20041;-71
2021/05/04 22:13:06;;;;;;;;;;;;;;;;;;5055382;28;20046;-71
2021/05/04 22:37:07;;;;;;;2.53;0.52;;;;;;;;;;5034390;28;20052;-71
2021/05/04 22:39:33;;;;;;;2.95;0.45;;;;;;;;;;5032688;28;20025;-71
2021/05/04 22:42:03;;;;;;;0.95;0.32;;;;;;;;;;5033374;28;20108;-71
2021/05/04 22:44:46;;;;;;;1.58;0.40;;;;;;;;;;5034219;28;20410;-71
